sensor_id;sensor_type;location;lat;lon;timestamp;temperature;humidity
54622;DHT22;40521;53.146;6.556;2023-06-22T00:02:13;16.60;99.90
54622;DHT22;40521;53.146;6.556;2023-06-22T00:04:39;16.40;99.90
54622;DHT22;40521;53.146;6.556;2023-06-22T00:07:04;16.20;99.90
54622;DHT22;40521;53.146;6.556;2023-06-22T00:09:30;16.10;99.90
54622;DHT22;40521;53.146;6.556;2023-06-22T00:11:56;16.00;99.90
54622;DHT22;40521;53.146;6.556;2023-06-22T00:14:21;16.10;99.90
54622;DHT22;40521;53.146;6.556;2023-06-22T00:16:47;16.10;99.90
54622;DHT22;40521;53.146;6.556;2023-06-22T00:19:14;16.10;99.90
54622;DHT22;40521;53.146;6.556;2023-06-22T00:21:40;16.20;99.90
54622;DHT22;40521;53.146;6.556;2023-06-22T00:24:05;16.20;99.90
54622;DHT22;40521;53.146;6.556;2023-06-22T00:26:32;16.30;99.90
54622;DHT22;40521;53.146;6.556;2023-06-22T00:28:57;16.10;99.90
54622;DHT22;40521;53.146;6.556;2023-06-22T00:31:23;16.00;99.90
54622;DHT22;40521;53.146;6.556;2023-06-22T00:33:48;15.90;99.90
54622;DHT22;40521;53.146;6.556;2023-06-22T00:36:16;15.80;99.90
54622;DHT22;40521;53.146;6.556;2023-06-22T00:38:43;15.60;99.90
54622;DHT22;40521;53.146;6.556;2023-06-22T00:41:08;15.50;99.90
54622;DHT22;40521;53.146;6.556;2023-06-22T00:43:34;15.40;99.90
54622;DHT22;40521;53.146;6.556;2023-06-22T00:46:00;15.30;99.90
54622;DHT22;40521;53.146;6.556;2023-06-22T00:48:26;15.20;99.90
54622;DHT22;40521;53.146;6.556;2023-06-22T00:50:51;15.30;99.90
54622;DHT22;40521;53.146;6.556;2023-06-22T00:53:19;15.30;99.90
54622;DHT22;40521;53.146;6.556;2023-06-22T00:55:45;15.30;99.90
54622;DHT22;40521;53.146;6.556;2023-06-22T00:58:12;15.20;99.90
54622;DHT22;40521;53.146;6.556;2023-06-22T01:00:38;15.20;99.90
54622;DHT22;40521;53.146;6.556;2023-06-22T01:03:04;15.00;99.90
54622;DHT22;40521;53.146;6.556;2023-06-22T01:05:34;15.00;99.90
54622;DHT22;40521;53.146;6.556;2023-06-22T01:11:12;14.80;99.90
54622;DHT22;40521;53.146;6.556;2023-06-22T01:13:32;14.70;99.90
54622;DHT22;40521;53.146;6.556;2023-06-22T01:16:05;14.70;99.90
54622;DHT22;40521;53.146;6.556;2023-06-22T01:18:33;14.80;99.90
54622;DHT22;40521;53.146;6.556;2023-06-22T01:21:01;14.90;99.90
54622;DHT22;40521;53.146;6.556;2023-06-22T01:26:37;15.10;99.90
54622;DHT22;40521;53.146;6.556;2023-06-22T01:28:48;15.00;99.90
54622;DHT22;40521;53.146;6.556;2023-06-22T01:31:15;15.00;99.90
54622;DHT22;40521;53.146;6.556;2023-06-22T01:33:43;14.90;99.90
54622;DHT22;40521;53.146;6.556;2023-06-22T01:36:09;14.80;99.90
54622;DHT22;40521;53.146;6.556;2023-06-22T01:38:35;14.60;99.90
54622;DHT22;40521;53.146;6.556;2023-06-22T01:41:01;14.60;99.90
54622;DHT22;40521;53.146;6.556;2023-06-22T01:43:27;14.70;99.90
54622;DHT22;40521;53.146;6.556;2023-06-22T01:45:54;14.70;99.90
54622;DHT22;40521;53.146;6.556;2023-06-22T01:48:20;14.90;99.90
54622;DHT22;40521;53.146;6.556;2023-06-22T01:50:46;14.90;99.90
54622;DHT22;40521;53.146;6.556;2023-06-22T01:53:12;14.90;99.90
54622;DHT22;40521;53.146;6.556;2023-06-22T01:55:38;14.80;99.90
54622;DHT22;40521;53.146;6.556;2023-06-22T01:58:03;14.80;99.90
54622;DHT22;40521;53.146;6.556;2023-06-22T02:00:30;14.70;99.90
54622;DHT22;40521;53.146;6.556;2023-06-22T02:03:01;14.70;99.90
54622;DHT22;40521;53.146;6.556;2023-06-22T02:05:34;14.60;99.90
54622;DHT22;40521;53.146;6.556;2023-06-22T02:10:53;14.40;99.90
54622;DHT22;40521;53.146;6.556;2023-06-22T02:13:20;14.50;99.90
54622;DHT22;40521;53.146;6.556;2023-06-22T02:15:46;14.50;99.90
54622;DHT22;40521;53.146;6.556;2023-06-22T02:18:12;14.50;99.90
54622;DHT22;40521;53.146;6.556;2023-06-22T02:20:38;14.60;99.90
54622;DHT22;40521;53.146;6.556;2023-06-22T02:23:04;14.60;99.90
54622;DHT22;40521;53.146;6.556;2023-06-22T02:25:30;14.50;99.90
54622;DHT22;40521;53.146;6.556;2023-06-22T02:27:56;14.50;99.90
54622;DHT22;40521;53.146;6.556;2023-06-22T02:30:22;14.30;99.90
54622;DHT22;40521;53.146;6.556;2023-06-22T02:32:48;14.20;99.90
54622;DHT22;40521;53.146;6.556;2023-06-22T02:35:13;14.10;99.90
54622;DHT22;40521;53.146;6.556;2023-06-22T02:37:39;13.90;99.90
54622;DHT22;40521;53.146;6.556;2023-06-22T02:40:07;13.80;99.90
54622;DHT22;40521;53.146;6.556;2023-06-22T02:42:37;13.70;99.90
54622;DHT22;40521;53.146;6.556;2023-06-22T02:45:03;13.50;99.90
54622;DHT22;40521;53.146;6.556;2023-06-22T02:47:29;13.30;99.90
54622;DHT22;40521;53.146;6.556;2023-06-22T02:49:54;13.30;99.90
54622;DHT22;40521;53.146;6.556;2023-06-22T02:52:20;13.30;99.90
54622;DHT22;40521;53.146;6.556;2023-06-22T02:54:46;13.30;99.90
54622;DHT22;40521;53.146;6.556;2023-06-22T02:57:12;13.40;99.90
54622;DHT22;40521;53.146;6.556;2023-06-22T02:59:39;13.50;99.90
54622;DHT22;40521;53.146;6.556;2023-06-22T03:02:06;13.50;99.90
54622;DHT22;40521;53.146;6.556;2023-06-22T03:04:32;13.60;99.90
54622;DHT22;40521;53.146;6.556;2023-06-22T03:06:57;13.60;99.90
54622;DHT22;40521;53.146;6.556;2023-06-22T03:09:26;13.70;99.90
54622;DHT22;40521;53.146;6.556;2023-06-22T03:11:53;13.70;99.90
54622;DHT22;40521;53.146;6.556;2023-06-22T03:14:19;13.70;99.90
54622;DHT22;40521;53.146;6.556;2023-06-22T03:16:44;13.70;99.90
54622;DHT22;40521;53.146;6.556;2023-06-22T03:19:10;13.70;99.90
54622;DHT22;40521;53.146;6.556;2023-06-22T03:21:37;13.80;99.90
54622;DHT22;40521;53.146;6.556;2023-06-22T03:24:04;13.90;99.90
54622;DHT22;40521;53.146;6.556;2023-06-22T03:26:30;14.00;99.90
54622;DHT22;40521;53.146;6.556;2023-06-22T03:28:56;14.10;99.90
54622;DHT22;40521;53.146;6.556;2023-06-22T03:31:21;14.10;99.90
54622;DHT22;40521;53.146;6.556;2023-06-22T03:33:47;14.20;99.90
54622;DHT22;40521;53.146;6.556;2023-06-22T03:36:14;14.30;99.90
54622;DHT22;40521;53.146;6.556;2023-06-22T03:38:45;14.40;99.90
54622;DHT22;40521;53.146;6.556;2023-06-22T03:41:11;14.50;99.90
54622;DHT22;40521;53.146;6.556;2023-06-22T03:43:36;14.50;99.90
54622;DHT22;40521;53.146;6.556;2023-06-22T03:46:02;14.60;99.90
54622;DHT22;40521;53.146;6.556;2023-06-22T03:48:27;14.60;99.90
54622;DHT22;40521;53.146;6.556;2023-06-22T03:50:53;14.70;99.90
54622;DHT22;40521;53.146;6.556;2023-06-22T03:53:19;14.80;99.90
54622;DHT22;40521;53.146;6.556;2023-06-22T03:55:48;14.80;99.90
54622;DHT22;40521;53.146;6.556;2023-06-22T03:58:14;14.80;99.90
54622;DHT22;40521;53.146;6.556;2023-06-22T04:00:40;14.80;99.90
54622;DHT22;40521;53.146;6.556;2023-06-22T04:03:05;14.70;99.90
54622;DHT22;40521;53.146;6.556;2023-06-22T04:05:32;14.70;99.90
54622;DHT22;40521;53.146;6.556;2023-06-22T04:07:58;14.60;99.90
54622;DHT22;40521;53.146;6.556;2023-06-22T04:10:24;14.50;99.90
54622;DHT22;40521;53.146;6.556;2023-06-22T04:12:49;14.30;99.90
54622;DHT22;40521;53.146;6.556;2023-06-22T04:15:15;14.20;99.90
54622;DHT22;40521;53.146;6.556;2023-06-22T04:17:40;14.00;99.90
54622;DHT22;40521;53.146;6.556;2023-06-22T04:20:06;14.00;99.90
54622;DHT22;40521;53.146;6.556;2023-06-22T04:22:32;13.90;99.90
54622;DHT22;40521;53.146;6.556;2023-06-22T04:24:58;13.90;99.90
54622;DHT22;40521;53.146;6.556;2023-06-22T04:27:23;13.90;99.90
54622;DHT22;40521;53.146;6.556;2023-06-22T04:29:49;13.90;99.90
54622;DHT22;40521;53.146;6.556;2023-06-22T04:32:15;14.00;99.90
54622;DHT22;40521;53.146;6.556;2023-06-22T04:34:40;14.10;99.90
54622;DHT22;40521;53.146;6.556;2023-06-22T04:37:06;14.20;99.90
54622;DHT22;40521;53.146;6.556;2023-06-22T04:39:32;14.40;99.90
54622;DHT22;40521;53.146;6.556;2023-06-22T04:41:57;14.60;99.90
54622;DHT22;40521;53.146;6.556;2023-06-22T04:44:25;14.80;99.90
54622;DHT22;40521;53.146;6.556;2023-06-22T04:46:56;14.90;99.90
54622;DHT22;40521;53.146;6.556;2023-06-22T04:49:34;15.10;99.90
54622;DHT22;40521;53.146;6.556;2023-06-22T04:52:02;15.40;99.90
54622;DHT22;40521;53.146;6.556;2023-06-22T04:54:28;15.60;99.90
54622;DHT22;40521;53.146;6.556;2023-06-22T04:56:54;15.80;99.90
54622;DHT22;40521;53.146;6.556;2023-06-22T04:59:22;16.00;99.90
54622;DHT22;40521;53.146;6.556;2023-06-22T05:01:47;16.10;99.90
54622;DHT22;40521;53.146;6.556;2023-06-22T05:04:13;16.20;99.90
54622;DHT22;40521;53.146;6.556;2023-06-22T05:06:39;16.40;99.90
54622;DHT22;40521;53.146;6.556;2023-06-22T05:09:05;16.70;99.90
54622;DHT22;40521;53.146;6.556;2023-06-22T05:11:31;16.80;99.90
54622;DHT22;40521;53.146;6.556;2023-06-22T05:13:57;16.90;99.90
54622;DHT22;40521;53.146;6.556;2023-06-22T05:16:22;17.00;99.90
54622;DHT22;40521;53.146;6.556;2023-06-22T05:18:54;17.00;99.90
54622;DHT22;40521;53.146;6.556;2023-06-22T05:21:23;17.10;99.90
54622;DHT22;40521;53.146;6.556;2023-06-22T05:23:50;17.20;99.90
54622;DHT22;40521;53.146;6.556;2023-06-22T05:26:16;17.30;99.90
54622;DHT22;40521;53.146;6.556;2023-06-22T05:28:41;17.30;99.90
54622;DHT22;40521;53.146;6.556;2023-06-22T05:31:07;17.40;99.90
54622;DHT22;40521;53.146;6.556;2023-06-22T05:33:32;17.40;99.90
54622;DHT22;40521;53.146;6.556;2023-06-22T05:35:58;17.50;99.90
54622;DHT22;40521;53.146;6.556;2023-06-22T05:38:24;17.60;99.90
54622;DHT22;40521;53.146;6.556;2023-06-22T05:40:49;17.60;99.90
54622;DHT22;40521;53.146;6.556;2023-06-22T05:43:15;17.70;99.90
54622;DHT22;40521;53.146;6.556;2023-06-22T05:45:40;17.80;99.90
54622;DHT22;40521;53.146;6.556;2023-06-22T05:48:06;17.90;99.90
54622;DHT22;40521;53.146;6.556;2023-06-22T05:50:32;17.90;99.90
54622;DHT22;40521;53.146;6.556;2023-06-22T05:52:57;18.00;99.90
54622;DHT22;40521;53.146;6.556;2023-06-22T05:55:23;18.10;99.90
54622;DHT22;40521;53.146;6.556;2023-06-22T05:57:48;18.20;99.90
54622;DHT22;40521;53.146;6.556;2023-06-22T06:00:14;18.30;99.90
54622;DHT22;40521;53.146;6.556;2023-06-22T06:02:40;18.30;99.90
54622;DHT22;40521;53.146;6.556;2023-06-22T06:05:11;18.40;99.90
54622;DHT22;40521;53.146;6.556;2023-06-22T06:07:40;18.50;99.90
54622;DHT22;40521;53.146;6.556;2023-06-22T06:10:06;18.60;99.90
54622;DHT22;40521;53.146;6.556;2023-06-22T06:12:32;18.70;99.90
54622;DHT22;40521;53.146;6.556;2023-06-22T06:14:58;18.70;99.90
54622;DHT22;40521;53.146;6.556;2023-06-22T06:17:23;18.80;99.90
54622;DHT22;40521;53.146;6.556;2023-06-22T06:19:49;18.80;99.90
54622;DHT22;40521;53.146;6.556;2023-06-22T06:22:14;18.90;99.90
54622;DHT22;40521;53.146;6.556;2023-06-22T06:24:40;19.00;99.90
54622;DHT22;40521;53.146;6.556;2023-06-22T06:27:05;19.10;99.90
54622;DHT22;40521;53.146;6.556;2023-06-22T06:29:31;19.20;99.90
54622;DHT22;40521;53.146;6.556;2023-06-22T06:31:57;19.20;99.90
54622;DHT22;40521;53.146;6.556;2023-06-22T06:34:22;19.30;99.90
54622;DHT22;40521;53.146;6.556;2023-06-22T06:36:48;19.30;99.90
54622;DHT22;40521;53.146;6.556;2023-06-22T06:39:14;19.40;99.90
54622;DHT22;40521;53.146;6.556;2023-06-22T06:41:39;19.40;99.90
54622;DHT22;40521;53.146;6.556;2023-06-22T06:44:05;19.50;99.90
54622;DHT22;40521;53.146;6.556;2023-06-22T06:46:30;19.60;99.90
54622;DHT22;40521;53.146;6.556;2023-06-22T06:48:56;19.60;99.90
54622;DHT22;40521;53.146;6.556;2023-06-22T06:51:22;19.70;99.90
54622;DHT22;40521;53.146;6.556;2023-06-22T06:53:47;19.90;99.90
54622;DHT22;40521;53.146;6.556;2023-06-22T06:56:13;19.90;99.90
54622;DHT22;40521;53.146;6.556;2023-06-22T06:58:40;20.00;99.90
54622;DHT22;40521;53.146;6.556;2023-06-22T07:01:07;20.00;99.90
54622;DHT22;40521;53.146;6.556;2023-06-22T07:03:33;20.10;99.90
54622;DHT22;40521;53.146;6.556;2023-06-22T07:05:59;20.10;99.90
54622;DHT22;40521;53.146;6.556;2023-06-22T07:08:24;20.20;99.90
54622;DHT22;40521;53.146;6.556;2023-06-22T07:10:50;20.20;99.90
54622;DHT22;40521;53.146;6.556;2023-06-22T07:13:17;20.30;99.90
54622;DHT22;40521;53.146;6.556;2023-06-22T07:15:42;20.50;99.90
54622;DHT22;40521;53.146;6.556;2023-06-22T07:18:08;20.50;99.90
54622;DHT22;40521;53.146;6.556;2023-06-22T07:20:33;20.60;99.90
54622;DHT22;40521;53.146;6.556;2023-06-22T07:22:59;20.50;99.90
54622;DHT22;40521;53.146;6.556;2023-06-22T07:25:25;20.50;99.90
54622;DHT22;40521;53.146;6.556;2023-06-22T07:30:23;20.60;99.90
54622;DHT22;40521;53.146;6.556;2023-06-22T07:32:48;20.60;99.90
54622;DHT22;40521;53.146;6.556;2023-06-22T07:35:14;20.60;99.90
54622;DHT22;40521;53.146;6.556;2023-06-22T07:37:41;20.60;99.90
54622;DHT22;40521;53.146;6.556;2023-06-22T07:40:07;20.60;99.90
54622;DHT22;40521;53.146;6.556;2023-06-22T07:42:33;20.70;99.90
54622;DHT22;40521;53.146;6.556;2023-06-22T07:44:59;20.80;99.90
54622;DHT22;40521;53.146;6.556;2023-06-22T07:47:24;20.80;99.90
54622;DHT22;40521;53.146;6.556;2023-06-22T07:49:50;20.80;99.90
54622;DHT22;40521;53.146;6.556;2023-06-22T07:52:16;20.80;99.90
54622;DHT22;40521;53.146;6.556;2023-06-22T07:54:41;20.80;99.90
54622;DHT22;40521;53.146;6.556;2023-06-22T07:57:07;20.90;99.90
54622;DHT22;40521;53.146;6.556;2023-06-22T07:59:32;20.90;99.90
54622;DHT22;40521;53.146;6.556;2023-06-22T08:01:58;20.90;99.90
54622;DHT22;40521;53.146;6.556;2023-06-22T08:04:23;21.00;99.90
54622;DHT22;40521;53.146;6.556;2023-06-22T08:06:49;21.00;99.90
54622;DHT22;40521;53.146;6.556;2023-06-22T08:09:15;21.10;99.90
54622;DHT22;40521;53.146;6.556;2023-06-22T08:11:40;21.20;99.90
54622;DHT22;40521;53.146;6.556;2023-06-22T08:14:06;21.30;99.90
54622;DHT22;40521;53.146;6.556;2023-06-22T08:16:31;21.30;99.90
54622;DHT22;40521;53.146;6.556;2023-06-22T08:18:57;21.30;99.90
54622;DHT22;40521;53.146;6.556;2023-06-22T08:21:23;21.40;99.90
54622;DHT22;40521;53.146;6.556;2023-06-22T08:23:48;21.40;99.90
54622;DHT22;40521;53.146;6.556;2023-06-22T08:26:14;21.60;99.90
54622;DHT22;40521;53.146;6.556;2023-06-22T08:28:40;21.70;99.90
54622;DHT22;40521;53.146;6.556;2023-06-22T08:31:06;21.80;99.90
54622;DHT22;40521;53.146;6.556;2023-06-22T08:33:31;21.80;99.90
54622;DHT22;40521;53.146;6.556;2023-06-22T08:35:57;21.80;99.90
54622;DHT22;40521;53.146;6.556;2023-06-22T08:38:23;21.90;99.90
54622;DHT22;40521;53.146;6.556;2023-06-22T08:40:49;22.00;99.90
54622;DHT22;40521;53.146;6.556;2023-06-22T08:43:15;22.10;99.90
54622;DHT22;40521;53.146;6.556;2023-06-22T08:45:41;22.10;99.90
54622;DHT22;40521;53.146;6.556;2023-06-22T08:48:06;22.10;99.90
54622;DHT22;40521;53.146;6.556;2023-06-22T08:50:32;22.10;99.90
54622;DHT22;40521;53.146;6.556;2023-06-22T08:52:57;22.20;99.90
54622;DHT22;40521;53.146;6.556;2023-06-22T08:55:23;22.30;99.90
54622;DHT22;40521;53.146;6.556;2023-06-22T08:57:49;22.40;99.90
54622;DHT22;40521;53.146;6.556;2023-06-22T09:00:14;22.40;99.90
54622;DHT22;40521;53.146;6.556;2023-06-22T09:02:42;22.50;99.90
54622;DHT22;40521;53.146;6.556;2023-06-22T09:05:08;22.50;99.90
54622;DHT22;40521;53.146;6.556;2023-06-22T09:07:33;22.50;99.90
54622;DHT22;40521;53.146;6.556;2023-06-22T09:09:59;22.50;99.90
54622;DHT22;40521;53.146;6.556;2023-06-22T09:12:25;22.50;99.90
54622;DHT22;40521;53.146;6.556;2023-06-22T09:14:52;22.60;99.90
54622;DHT22;40521;53.146;6.556;2023-06-22T09:17:18;22.60;99.90
54622;DHT22;40521;53.146;6.556;2023-06-22T09:19:44;22.70;99.90
54622;DHT22;40521;53.146;6.556;2023-06-22T09:22:09;22.80;99.90
54622;DHT22;40521;53.146;6.556;2023-06-22T09:24:35;22.90;99.90
54622;DHT22;40521;53.146;6.556;2023-06-22T09:27:01;22.90;99.90
54622;DHT22;40521;53.146;6.556;2023-06-22T09:29:26;23.00;99.90
54622;DHT22;40521;53.146;6.556;2023-06-22T09:31:52;23.10;99.90
54622;DHT22;40521;53.146;6.556;2023-06-22T09:34:21;23.20;99.90
54622;DHT22;40521;53.146;6.556;2023-06-22T09:36:46;23.30;99.90
54622;DHT22;40521;53.146;6.556;2023-06-22T09:39:12;23.40;99.90
54622;DHT22;40521;53.146;6.556;2023-06-22T09:41:38;23.50;99.90
54622;DHT22;40521;53.146;6.556;2023-06-22T09:44:03;23.40;99.90
54622;DHT22;40521;53.146;6.556;2023-06-22T09:46:29;23.40;99.90
54622;DHT22;40521;53.146;6.556;2023-06-22T09:48:55;23.40;99.90
54622;DHT22;40521;53.146;6.556;2023-06-22T09:51:20;23.40;99.90
54622;DHT22;40521;53.146;6.556;2023-06-22T09:53:47;23.30;99.90
54622;DHT22;40521;53.146;6.556;2023-06-22T09:56:13;23.30;99.90
54622;DHT22;40521;53.146;6.556;2023-06-22T09:58:43;23.40;99.90
54622;DHT22;40521;53.146;6.556;2023-06-22T10:01:09;23.50;99.90
54622;DHT22;40521;53.146;6.556;2023-06-22T10:03:40;23.60;99.90
54622;DHT22;40521;53.146;6.556;2023-06-22T10:06:06;23.80;99.90
54622;DHT22;40521;53.146;6.556;2023-06-22T10:08:32;23.90;99.90
54622;DHT22;40521;53.146;6.556;2023-06-22T10:10:58;24.00;99.90
54622;DHT22;40521;53.146;6.556;2023-06-22T10:13:23;24.20;99.90
54622;DHT22;40521;53.146;6.556;2023-06-22T10:15:49;24.30;99.90
54622;DHT22;40521;53.146;6.556;2023-06-22T10:18:17;24.40;99.90
54622;DHT22;40521;53.146;6.556;2023-06-22T10:20:43;24.40;99.90
54622;DHT22;40521;53.146;6.556;2023-06-22T10:23:09;24.40;99.90
54622;DHT22;40521;53.146;6.556;2023-06-22T10:25:34;24.30;99.90
54622;DHT22;40521;53.146;6.556;2023-06-22T10:28:00;24.30;99.90
54622;DHT22;40521;53.146;6.556;2023-06-22T10:30:25;24.30;99.90
54622;DHT22;40521;53.146;6.556;2023-06-22T10:32:51;24.40;99.90
54622;DHT22;40521;53.146;6.556;2023-06-22T10:35:17;24.50;99.90
54622;DHT22;40521;53.146;6.556;2023-06-22T10:37:45;24.50;99.90
54622;DHT22;40521;53.146;6.556;2023-06-22T10:40:15;24.70;99.90
54622;DHT22;40521;53.146;6.556;2023-06-22T10:42:41;24.80;99.90
54622;DHT22;40521;53.146;6.556;2023-06-22T10:45:07;24.90;99.90
54622;DHT22;40521;53.146;6.556;2023-06-22T10:47:33;24.80;99.90
54622;DHT22;40521;53.146;6.556;2023-06-22T10:49:59;24.90;99.90
54622;DHT22;40521;53.146;6.556;2023-06-22T10:52:24;24.90;99.90
54622;DHT22;40521;53.146;6.556;2023-06-22T10:54:50;25.00;99.90
54622;DHT22;40521;53.146;6.556;2023-06-22T10:57:16;24.90;99.90
54622;DHT22;40521;53.146;6.556;2023-06-22T10:59:41;24.90;99.90
54622;DHT22;40521;53.146;6.556;2023-06-22T11:02:07;25.00;99.90
54622;DHT22;40521;53.146;6.556;2023-06-22T11:04:32;25.10;99.90
54622;DHT22;40521;53.146;6.556;2023-06-22T11:06:58;25.10;99.90
54622;DHT22;40521;53.146;6.556;2023-06-22T11:09:24;25.40;99.90
54622;DHT22;40521;53.146;6.556;2023-06-22T11:11:50;25.50;99.90
54622;DHT22;40521;53.146;6.556;2023-06-22T11:14:18;25.80;99.90
54622;DHT22;40521;53.146;6.556;2023-06-22T11:16:44;26.00;99.90
54622;DHT22;40521;53.146;6.556;2023-06-22T11:19:11;25.90;99.90
54622;DHT22;40521;53.146;6.556;2023-06-22T11:21:37;26.00;99.90
54622;DHT22;40521;53.146;6.556;2023-06-22T11:24:02;25.90;99.90
54622;DHT22;40521;53.146;6.556;2023-06-22T11:26:28;25.80;99.90
54622;DHT22;40521;53.146;6.556;2023-06-22T11:28:54;25.80;99.90
54622;DHT22;40521;53.146;6.556;2023-06-22T11:31:19;25.80;99.90
54622;DHT22;40521;53.146;6.556;2023-06-22T11:33:45;25.80;99.90
54622;DHT22;40521;53.146;6.556;2023-06-22T11:36:13;25.80;99.90
54622;DHT22;40521;53.146;6.556;2023-06-22T11:38:40;25.80;99.70
54622;DHT22;40521;53.146;6.556;2023-06-22T11:41:05;25.70;99.90
54622;DHT22;40521;53.146;6.556;2023-06-22T11:43:31;25.70;99.90
54622;DHT22;40521;53.146;6.556;2023-06-22T11:45:57;25.70;99.90
54622;DHT22;40521;53.146;6.556;2023-06-22T11:48:26;25.60;99.90
54622;DHT22;40521;53.146;6.556;2023-06-22T11:50:51;25.80;99.90
54622;DHT22;40521;53.146;6.556;2023-06-22T11:53:17;25.80;99.60
54622;DHT22;40521;53.146;6.556;2023-06-22T11:55:43;25.80;99.10
54622;DHT22;40521;53.146;6.556;2023-06-22T11:58:09;25.70;99.70
54622;DHT22;40521;53.146;6.556;2023-06-22T12:00:35;25.80;99.90
54622;DHT22;40521;53.146;6.556;2023-06-22T12:03:00;25.80;99.70
54622;DHT22;40521;53.146;6.556;2023-06-22T12:05:26;25.80;99.10
54622;DHT22;40521;53.146;6.556;2023-06-22T12:07:55;25.80;99.30
54622;DHT22;40521;53.146;6.556;2023-06-22T12:10:21;25.80;99.00
54622;DHT22;40521;53.146;6.556;2023-06-22T12:12:47;25.70;99.80
54622;DHT22;40521;53.146;6.556;2023-06-22T12:15:12;25.70;99.90
54622;DHT22;40521;53.146;6.556;2023-06-22T12:17:38;25.80;99.90
54622;DHT22;40521;53.146;6.556;2023-06-22T12:20:04;25.80;99.90
54622;DHT22;40521;53.146;6.556;2023-06-22T12:22:31;25.80;99.90
54622;DHT22;40521;53.146;6.556;2023-06-22T12:24:57;25.80;99.70
54622;DHT22;40521;53.146;6.556;2023-06-22T12:27:22;25.70;99.90
54622;DHT22;40521;53.146;6.556;2023-06-22T12:29:48;25.70;99.90
54622;DHT22;40521;53.146;6.556;2023-06-22T12:32:14;25.60;99.90
54622;DHT22;40521;53.146;6.556;2023-06-22T12:34:41;25.50;99.90
54622;DHT22;40521;53.146;6.556;2023-06-22T12:37:06;25.50;99.90
54622;DHT22;40521;53.146;6.556;2023-06-22T12:39:32;25.50;99.90
54622;DHT22;40521;53.146;6.556;2023-06-22T12:41:58;25.50;99.90
54622;DHT22;40521;53.146;6.556;2023-06-22T12:44:23;25.50;99.90
54622;DHT22;40521;53.146;6.556;2023-06-22T12:46:49;25.50;99.90
54622;DHT22;40521;53.146;6.556;2023-06-22T12:49:15;25.60;99.90
54622;DHT22;40521;53.146;6.556;2023-06-22T12:51:41;25.50;99.90
54622;DHT22;40521;53.146;6.556;2023-06-22T12:54:07;25.50;99.90
54622;DHT22;40521;53.146;6.556;2023-06-22T12:56:33;25.50;99.90
54622;DHT22;40521;53.146;6.556;2023-06-22T12:58:59;25.50;99.90
54622;DHT22;40521;53.146;6.556;2023-06-22T13:01:27;25.60;99.90
54622;DHT22;40521;53.146;6.556;2023-06-22T13:03:53;25.60;99.90
54622;DHT22;40521;53.146;6.556;2023-06-22T13:06:18;25.70;99.90
54622;DHT22;40521;53.146;6.556;2023-06-22T13:08:44;25.60;99.90
54622;DHT22;40521;53.146;6.556;2023-06-22T13:11:09;25.60;99.90
54622;DHT22;40521;53.146;6.556;2023-06-22T13:13:35;25.70;99.90
54622;DHT22;40521;53.146;6.556;2023-06-22T13:16:01;25.70;99.90
54622;DHT22;40521;53.146;6.556;2023-06-22T13:18:26;25.70;99.90
54622;DHT22;40521;53.146;6.556;2023-06-22T13:20:52;25.70;99.90
54622;DHT22;40521;53.146;6.556;2023-06-22T13:23:22;25.60;99.90
54622;DHT22;40521;53.146;6.556;2023-06-22T13:25:48;25.50;99.90
54622;DHT22;40521;53.146;6.556;2023-06-22T13:28:14;25.50;99.90
54622;DHT22;40521;53.146;6.556;2023-06-22T13:30:41;25.30;99.90
54622;DHT22;40521;53.146;6.556;2023-06-22T13:33:07;25.30;99.90
54622;DHT22;40521;53.146;6.556;2023-06-22T13:35:32;25.40;99.90
54622;DHT22;40521;53.146;6.556;2023-06-22T13:37:58;25.20;99.90
54622;DHT22;40521;53.146;6.556;2023-06-22T13:40:23;25.20;99.80
54622;DHT22;40521;53.146;6.556;2023-06-22T13:42:49;25.10;99.70
54622;DHT22;40521;53.146;6.556;2023-06-22T13:45:15;24.90;99.90
54622;DHT22;40521;53.146;6.556;2023-06-22T13:47:42;24.90;99.90
54622;DHT22;40521;53.146;6.556;2023-06-22T13:50:08;24.90;99.90
54622;DHT22;40521;53.146;6.556;2023-06-22T13:52:34;24.80;99.90
54622;DHT22;40521;53.146;6.556;2023-06-22T13:54:59;24.80;99.90
54622;DHT22;40521;53.146;6.556;2023-06-22T13:57:25;24.70;99.90
54622;DHT22;40521;53.146;6.556;2023-06-22T13:59:50;24.70;99.90
54622;DHT22;40521;53.146;6.556;2023-06-22T14:02:16;24.70;99.90
54622;DHT22;40521;53.146;6.556;2023-06-22T14:04:42;24.70;99.90
54622;DHT22;40521;53.146;6.556;2023-06-22T14:07:07;24.70;99.90
54622;DHT22;40521;53.146;6.556;2023-06-22T14:09:33;24.60;99.90
54622;DHT22;40521;53.146;6.556;2023-06-22T14:12:02;24.50;99.90
54622;DHT22;40521;53.146;6.556;2023-06-22T14:14:31;24.50;99.90
54622;DHT22;40521;53.146;6.556;2023-06-22T14:16:57;24.30;99.90
54622;DHT22;40521;53.146;6.556;2023-06-22T14:19:23;24.20;99.90
54622;DHT22;40521;53.146;6.556;2023-06-22T14:21:48;24.20;99.90
54622;DHT22;40521;53.146;6.556;2023-06-22T14:24:16;24.20;99.90
54622;DHT22;40521;53.146;6.556;2023-06-22T14:26:42;24.10;99.90
54622;DHT22;40521;53.146;6.556;2023-06-22T14:29:07;24.10;99.90
54622;DHT22;40521;53.146;6.556;2023-06-22T14:31:33;24.00;99.90
54622;DHT22;40521;53.146;6.556;2023-06-22T14:33:59;23.90;99.90
54622;DHT22;40521;53.146;6.556;2023-06-22T14:36:25;23.80;99.90
54622;DHT22;40521;53.146;6.556;2023-06-22T14:38:50;23.80;99.90
54622;DHT22;40521;53.146;6.556;2023-06-22T14:41:16;23.80;99.90
54622;DHT22;40521;53.146;6.556;2023-06-22T14:43:46;23.70;99.90
54622;DHT22;40521;53.146;6.556;2023-06-22T14:46:12;23.70;99.90
54622;DHT22;40521;53.146;6.556;2023-06-22T14:48:38;23.70;99.90
54622;DHT22;40521;53.146;6.556;2023-06-22T14:51:04;23.60;99.90
54622;DHT22;40521;53.146;6.556;2023-06-22T14:53:29;23.60;99.90
54622;DHT22;40521;53.146;6.556;2023-06-22T14:55:55;23.60;99.90
54622;DHT22;40521;53.146;6.556;2023-06-22T14:58:21;23.70;99.70
54622;DHT22;40521;53.146;6.556;2023-06-22T15:00:47;23.50;99.70
54622;DHT22;40521;53.146;6.556;2023-06-22T15:03:12;23.50;99.20
54622;DHT22;40521;53.146;6.556;2023-06-22T15:05:43;23.40;99.40
54622;DHT22;40521;53.146;6.556;2023-06-22T15:08:09;23.40;99.10
54622;DHT22;40521;53.146;6.556;2023-06-22T15:10:34;23.30;99.50
54622;DHT22;40521;53.146;6.556;2023-06-22T15:13:00;23.20;99.50
54622;DHT22;40521;53.146;6.556;2023-06-22T15:15:26;23.20;99.80
54622;DHT22;40521;53.146;6.556;2023-06-22T15:17:52;23.10;99.60
54622;DHT22;40521;53.146;6.556;2023-06-22T15:20:17;23.20;98.90
54622;DHT22;40521;53.146;6.556;2023-06-22T15:22:43;23.10;98.40
54622;DHT22;40521;53.146;6.556;2023-06-22T15:25:09;22.90;99.00
54622;DHT22;40521;53.146;6.556;2023-06-22T15:27:35;23.00;98.40
54622;DHT22;40521;53.146;6.556;2023-06-22T15:30:01;22.90;99.10
54622;DHT22;40521;53.146;6.556;2023-06-22T15:32:28;22.80;99.00
54622;DHT22;40521;53.146;6.556;2023-06-22T15:34:54;22.80;99.30